RJCW/WKJ METAR and TAF weather

Enter ICAO airport designator
Station Type Date Time Source
RJCW METAR 2019/04/22 23:30 UTC NOAA

RJCW 222330Z 20015KT 9999 FEW015 BKN/// 09/04 Q1018


Station Type Date Time Source
RJCW Decoded METAR 2019/04/22 23:30 UTC NOAA

Wakkanai Airport, Japan (RJCW) 45-24N 141-48E 11M
Apr 22, 2019 - 07:30 PM EDT / 2019.04.22 2330 UTC
Wind: from the SSW (200 degrees) at 17 MPH (15 KT):0
Visibility: greater than 7 mile(s):0
Sky conditions: mostly cloudy
Temperature: 48 F (9 C)
Dew Point: 39 F (4 C)
Relative Humidity: 70%
Pressure (altimeter): 30.06 in. Hg (1018 hPa)
ob: RJCW 222330Z 20015KT 9999 FEW015 BKN/// 09/04 Q1018
cycle: 23

Station Type Date Time Source
RJCW TAF UTC NOAA

Error!

Example: see airport list